Video statistics

Date Title
2016-02-18 Crash Course Physics Preview 02:36 2,184,073 38,268 128 2,754 2,641
2016-03-31 Motion in a Straight Line: Crash Course Physics #1 10:40 5,643,970 76,957 949 4,166 12,106
2016-04-07 Derivatives: Crash Course Physics #2 10:02 2,062,697 30,068 600 2,151 11,643
2016-04-14 Integrals: Crash Course Physics #3 10:09 1,109,495 15,969 265 1,053 12,355
2016-04-21 Vectors and 2D Motion: Crash Course Physics #4 10:06 1,748,383 21,152 222 852 11,302
2016-04-28 Newton's Laws: Crash Course Physics #5 11:04 5,936,020 62,373 626 1,988 12,950
2016-05-05 Friction: Crash Course Physics #6 10:59 1,909,156 20,880 329 924 13,025
2016-05-12 Uniform Circular Motion: Crash Course Physics #7 09:54 2,084,950 26,698 346 842 12,388
2016-05-19 Newtonian Gravity: Crash Course Physics #8 09:20 1,377,546 16,160 166 716 11,307
2016-05-26 Work, Energy, and Power: Crash Course Physics #9 09:55 3,405,193 41,775 415 1,214 12,126
2016-06-02 Collisions: Crash Course Physics #10 09:21 1,544,800 17,108 149 596 11,819
2016-06-09 Rotational Motion: Crash Course Physics #11 08:55 1,383,123 16,472 321 690 11,091
2016-06-16 Torque: Crash Course Physics #12 08:03 1,283,909 18,957 203 847 10,721
2016-06-23 Statics: Crash Course Physics #13 09:08 689,227 10,424 100 489 10,394
2016-06-30 Outtakes #1: Crash Course Physics 03:27 94,320 2,099 41 131 2,912
2016-07-08 Fluids at Rest: Crash Course Physics #14 09:59 1,147,526 17,768 92 488 12,205
2016-07-14 Fluids in Motion: Crash Course Physics #15 09:47 1,383,922 23,624 88 584 12,167
2016-07-21 Simple Harmonic Motion: Crash Course Physics #16 09:11 1,919,303 26,448 206 613 11,214
2016-07-28 Traveling Waves: Crash Course Physics #17 07:45 2,084,764 23,618 168 569 9,017
2016-08-04 Sound: Crash Course Physics #18 09:39 2,003,297 20,330 238 561 11,159
2016-08-11 The Physics of Music: Crash Course Physics #19 10:35 866,385 12,745 144 602 12,866
2016-08-18 Temperature: Crash Course Physics #20 09:01 527,411 7,036 78 282 10,812
2016-08-26 Outtakes #2: Crash Course Physics 04:59 63,894 1,246 50 124 3,779
2016-09-01 Kinetic Theory and Phase Changes: Crash Course Physics #21 09:09 586,353 6,967 91 327 11,092
2016-09-08 The Physics of Heat: Crash Course Physics #22 09:16 888,617 10,876 176 497 11,597
2016-09-15 Thermodynamics: Crash Course Physics #23 10:04 2,019,226 30,542 203 825 12,554
2016-09-22 Engines: Crash Course Physics #24 10:21 378,925 5,454 91 230 12,877
2016-09-29 Electric Charge: Crash Course Physics #25 09:42 2,850,607 36,938 180 848 11,484
2016-10-07 Electric Fields: Crash Course Physics #26 09:57 1,759,526 21,232 239 600 11,951
2016-10-14 Voltage, Electric Energy, and Capacitors: Crash Course Physics #27 10:14 900,798 10,345 316 524 12,464
2016-10-20 Electric Current: Crash Course Physics #28 08:23 1,336,310 13,908 338 567 10,399
2016-10-27 DC Resistors & Batteries: Crash Course Physics #29 10:48 492,090 5,909 83 264 13,205
2016-11-05 Circuit Analysis: Crash Course Physics #30 10:56 1,178,639 16,169 163 593 12,588
2016-11-10 Outtakes #3: Crash Course Physics 06:21 45,253 897 35 79 5,117
2016-11-18 Capacitors and Kirchhoff: Crash Course Physics #31 10:38 442,649 5,612 89 213 13,006
2016-12-01 Magnetism: Crash Course Physics #32 09:47 2,212,047 27,689 673 871 12,152
2016-12-08 Ampère's Law: Crash Course Physics #33 08:45 691,876 10,832 196 282 10,905
2016-12-16 Induction - An Introduction: Crash Course Physics #34 09:49 1,106,825 15,016 215 539 11,762
2016-12-22 How Power Gets to Your Home: Crash Course Physics #35 08:33 320,754 4,413 111 290 10,772
2017-01-07 AC Circuits: Crash Course Physics #36 10:07 620,652 9,024 513 528 12,439
2017-01-13 Maxwell's Equations: Crash Course Physics #37 10:49 895,030 15,209 181 644 13,876
2017-01-19 Geometric Optics: Crash Course Physics #38 09:40 1,049,155 15,173 259 419 12,128
2017-01-26 Light Is Waves: Crash Course Physics #39 09:45 1,291,713 13,418 185 579 11,698
2017-02-02 Spectra Interference: Crash Course Physics #40 08:25 281,910 3,728 63 165 10,763
2017-02-16 Optical Instruments: Crash Course Physics #41 10:36 386,847 5,164 118 225 12,573
2017-02-23 Special Relativity: Crash Course Physics #42 08:59 1,422,409 27,708 215 1,291 11,483
2017-03-03 Quantum Mechanics - Part 1: Crash Course Physics #43 08:45 2,215,045 36,379 481 1,282 10,879
2017-03-09 Quantum Mechanics - Part 2: Crash Course Physics #44 09:08 548,385 10,044 97 434 11,629
2017-03-20 Nuclear Physics: Crash Course Physics #45 10:24 1,131,847 19,600 221 580 12,144
2017-03-24 Astrophysics and Cosmology: Crash Course Physics #46 09:21 680,404 16,811 75 574 10,775
2017-03-30 Outtakes #4: Crash Course Physics 05:42 48,107 1,168 30 145 4,219